Weaver, AL (36277)

6:23 PM CDT on May 29, 2015 (GMT -0500)
saks | | Change Station
CLOSE
Current Station
Personal Weather Station
Location: Anniston, AL
Elevation: 692 ft
Nearby Weather Stations

Elev 692 ft 33.72 °N, 85.86 °W | Updated 7 minutes ago

Partly Cloudy
Partly Cloudy
78.3 °F
Feels Like 81 °F
N
0.0
Wind Variable Wind from East

Today
High -- | Low -- °F
--% Chance of Precip.
Yesterday
High -- | Low -- °F
Precip. -- in
5:34 AM 7:46 PM
Waxing Gibbous, 86% visible
Pressure 30.08 in
Visibility 10.0 miles
Clouds Few 11000 ft
Heat Index 81 °F
Dew Point 71 °F
Humidity 79%
Rainfall 0.09 in
Snow Depth Not available.
UV 2 out of 12
Pollen .20 out of 12
Air Quality Not available.
Flu Activity Sporadic
METAR KANB 292253Z AUTO 00000KT 10SM FEW110 24/20 A3010 RMK AO2 SLP186 T02440200

More Conditions Fewer Conditions

Pressure 30.08 in
Visibility 10.0 miles
Clouds Few 11000 ft
Heat Index 81 °F
Dew Point 71 °F
Humidity 79%
Rainfall 0.09 in
Snow Depth Not available.
UV 2 out of 12
Pollen .20 out of 12
Air Quality Not available.
Flu Activity Sporadic
METAR KANB 292253Z AUTO 00000KT 10SM FEW110 24/20 A3010 RMK AO2 SLP186 T02440200

More Conditions Fewer Conditions

10-Day Weather Forecast

Almanac

Astronomy

May. 29, 2015 Rise Set
Actual Time
Civil Twilight
Nautical Twilight
Astronomical Twilight
Moon
Length of Visible Light
Length of Day
Tomorrow will be .
, % of the Moon is Illuminated

Today's Extremes

State Highs State Lows

Community

WunderPhotos

Upload Photos

1,825,401 photos uploaded!

WunderBlogs® & News

Nearby

Air Quality

  Air Quality AQ Index Pollutant
Not available.

Snow Depth

Station Depth Elevation

Earthquake Activity

City Distance Mag. Time & Date
Minimum magnitude displayed is 2.5.

Coastal Water Temperatures

Place Temperature

Stations

Nearby Weather Stations

Station Location Temp. Windchill Dew Point Humidity Wind Precip. Elev Updated Type